METAR Data
IDs: Format: Raw Decoded Include TAF

Data at: 2132 UTC 24 Mar 2019

KSSF 242053Z 16007KT 10SM BKN037 28/16 A2999 RMK AO2 SLP146 T02830156 58025
KSSF 241953Z 17006KT 10SM BKN036 27/16 A3002 RMK AO2 SLP156 T02670161
KSSF 241853Z 19006KT 10SM OVC032 26/16 A3005 RMK AO2 SLP166 T02560161
KSSF 241835Z 19004KT 10SM OVC031 25/16 A3005 RMK AO2 T02500161
KSSF 241753Z 22007KT 10SM OVC027 24/16 A3007 RMK AO2 SLP172 T02390161 10244 20194 58008
KSSF 241653Z 19005KT 10SM OVC023 23/16 A3008 RMK AO2 SLP178 T02330161
KSSF 241553Z 19006KT 10SM SCT018 OVC024 23/16 A3009 RMK AO2 SLP182 T02280161
KSSF 241453Z 19009KT 10SM SCT011 OVC024 21/17 A3009 RMK AO2 SLP182 T02110167 51015
KSSF 241404Z 17005KT 10SM BKN013 BKN019 OVC024 20/17 A3008 RMK AO2 T02000167
KSSF 241353Z 17005KT 10SM BKN015 OVC022 20/17 A3008 RMK AO2 SLP178 T02000167
KSSF 241253Z 13004KT 10SM OVC012 19/17 A3006 RMK AO2 SLP171 T01940167
KSSF 241153Z 15005KT 10SM BKN014 OVC019 19/17 A3004 RMK AO2 SLP166 70001 T01940167 10200 20189 50003
KSSF 241104Z AUTO 15004KT 10SM SCT017 OVC023 19/16 A3005 RMK AO2 T01940161
KSSF 241053Z AUTO 16004KT 10SM BKN014 OVC021 19/16 A3005 RMK AO2 SLP167 T01940161
KSSF 241027Z AUTO 14004KT 10SM OVC014 19/16 A3004 RMK AO2 T01940161
KSSF 240953Z AUTO 14003KT 10SM BKN015 OVC023 19/16 A3003 RMK AO2 SLP163 T01940161
KSSF 240853Z AUTO 00000KT 10SM OVC015 19/16 A3003 RMK AO2 SLP163 T01940161 55001
KSSF 240849Z AUTO 12003KT 10SM BKN015 OVC020 19/16 A3003 RMK AO2
KSSF 240753Z AUTO 00000KT 10SM OVC014 19/16 A3003 RMK AO2 SLP163 T01890161
KSSF 240729Z AUTO 00000KT 10SM OVC014 19/16 A3004 RMK AO2 T01940161
KSSF 240653Z AUTO 15004KT 10SM OVC015 19/16 A3004 RMK AO2 SLP164 T01940161
KSSF 240553Z AUTO 14006KT 10SM BKN018 OVC033 20/16 A3005 RMK AO2 SLP168 T02000161 10222 20200 402440172 58002
KSSF 240524Z AUTO 14007KT 10SM BKN020 OVC035 20/16 A3006 RMK AO2 T02000161
KSSF 240453Z AUTO 14007KT 10SM FEW022 BKN034 OVC044 20/16 A3006 RMK AO2 SLP171 T02000161
KSSF 240405Z AUTO 14009KT 10SM FEW022 OVC033 21/16 A3006 RMK AO2 T02060156
KSSF 240353Z AUTO 14010KT 10SM BKN024 BKN029 OVC036 21/16 A3007 RMK AO2 SLP173 T02060156
KSSF 240341Z AUTO 15010KT 10SM BKN026 OVC034 21/16 A3006 RMK AO2 T02060156
KSSF 240253Z AUTO 14010KT 10SM BKN048 OVC055 21/16 A3006 RMK AO2 SLP173 T02060156 53019
KSSF 240153Z 15010KT 10SM SCT030 BKN049 OVC060 22/14 A3004 RMK AO2 SLP167 T02170144
KSSF 240139Z 14009KT 10SM BKN030 BKN038 OVC050 22/14 A3004 RMK AO2 T02170144
KSSF 240053Z 14011KT 10SM OVC028 22/14 A3002 RMK AO2 SLP158 T02170144
KSSF 240024Z 14013G19KT 10SM BKN027 OVC035 22/15 A3002 RMK AO2 T02220150
KSSF 232353Z 14014KT 10SM FEW025 BKN032 OVC043 22/15 A3000 RMK AO2 SLP153 60001 T02220150 10244 20211 55000
KSSF 232328Z 13015KT 10SM BKN025 OVC042 22/16 A3000 RMK AO2 T02220156
KSSF 232253Z 13010G18KT 10SM SCT025 BKN035 OVC065 23/17 A2998 RMK AO2 RAB36E46 SLP147 P0000 T02330167
KSSF 232238Z 13009KT 10SM -RA BKN025 OVC038 22/17 A2999 RMK AO2 RAB36 P0000 T02220167
KSSF 232153Z 13009KT 10SM SCT021 SCT029 OVC050 23/17 A3000 RMK AO2 RAB04E15 SLP153 P0000 T02280167
KSSF 232053Z 15007KT 10SM BKN036 OVC045 23/17 A3001 RMK AO2 RAB1959E20 SLP157 P0001 60001 T02330167 58018
KSSF 231953Z 19004KT 10SM OVC033 23/15 A3004 RMK AO2 SLP165 T02280150
KSSF 231853Z 20007KT 10SM OVC034 23/14 A3004 RMK AO2 SLP166 T02330144
KSSF 231800Z 18008KT 10SM SCT029 BKN041 OVC070 23/15 A3006 RMK AO2 T02330150
KSSF 231753Z 18007KT 10SM BKN029 BKN037 OVC070 24/15 A3007 RMK AO2 SLP173 T02390150 10239 20178 56005
KSSF 231726Z 18009KT 10SM OVC029 22/14 A3007 RMK AO2 T02220144
KSSF 231653Z 18008KT 10SM OVC033 22/15 A3007 RMK AO2 SLP176 T02220150
KSSF 231553Z 15009KT 10SM BKN034 OVC065 21/15 A3007 RMK AO2 SLP176 T02110150
KSSF 231516Z 14007KT 10SM OVC031 19/14 A3008 RMK AO2 T01940144
KSSF 231501Z 14005KT 10SM BKN029 OVC037 19/14 A3008 RMK AO2 T01890144
KSSF 231453Z 14005KT 10SM SCT029 OVC035 19/14 A3008 RMK AO2 SLP180 T01890144 51016
KSSF 231353Z 13003KT 10SM SCT034 BKN055 OVC065 18/14 A3007 RMK AO2 SLP177 T01830139
KSSF 231253Z 00000KT 10SM BKN047 OVC070 18/13 A3005 RMK AO2 SLP170 T01780128
KSSF 231153Z 08003KT 10SM OVC044 18/13 A3003 RMK AO2 SLP162 T01780128 10189 20172 53008
KSSF 231135Z AUTO 00000KT 10SM SCT022 OVC046 18/13 A3003 RMK AO2 T01780128
KSSF 231128Z AUTO 00000KT 10SM BKN022 OVC046 17/13 A3002 RMK AO2 T01720128
KSSF 231053Z AUTO 00000KT 10SM SCT022 BKN046 OVC070 17/13 A3001 RMK AO2 SLP155 T01720128
KSSF 230953Z AUTO 10004KT 10SM BKN021 17/12 A2998 RMK AO2 SLP146 T01720122
KSSF 230944Z AUTO 13005KT 10SM BKN021 BKN044 17/12 A2999 RMK AO2 T01720122